createdAt,value
2023-05-09T09:14:23.940Z,101428.09
2023-05-09T09:16:52.129Z,101427.97
2023-05-09T09:19:19.097Z,101419.09
2023-05-09T09:21:47.269Z,101414.78
2023-05-09T09:24:14.729Z,101400.41
2023-05-09T09:26:46.737Z,101423.09
2023-05-09T09:29:13.627Z,101412.16
2023-05-09T09:31:44.592Z,101399.13
2023-05-09T09:34:16.853Z,101396.28
2023-05-09T09:36:43.625Z,101416.00
2023-05-09T09:39:13.151Z,101393.31
2023-05-09T09:41:42.315Z,101391.19
2023-05-09T09:44:10.519Z,101395.22
2023-05-09T09:46:55.958Z,101396.53
2023-05-09T09:49:25.241Z,101403.00
2023-05-09T09:51:52.608Z,101393.34
2023-05-09T09:54:19.672Z,101382.81
2023-05-09T09:56:50.407Z,101385.28
2023-05-09T09:59:26.904Z,101376.72
2023-05-09T10:02:07.988Z,101375.00
2023-05-09T10:04:37.514Z,101366.56
2023-05-09T10:07:07.227Z,101373.28
2023-05-09T10:09:35.270Z,101362.72
2023-05-09T10:12:04.248Z,101365.88
2023-05-09T10:14:34.806Z,101351.88
2023-05-09T10:17:03.393Z,101353.31
2023-05-09T10:19:30.492Z,101353.53
2023-05-09T10:21:59.115Z,101350.69
2023-05-09T10:25:13.277Z,101348.19
2023-05-09T10:27:45.821Z,101341.81
2023-05-09T10:30:18.324Z,101350.91
2023-05-09T10:32:53.077Z,101341.91
2023-05-09T10:35:24.616Z,101330.50
2023-05-09T10:37:52.919Z,101332.75
2023-05-09T10:40:20.071Z,101339.41
2023-05-09T10:42:47.149Z,101334.31
2023-05-09T10:45:14.193Z,101320.44
2023-05-09T10:47:42.734Z,101312.19
2023-05-09T10:50:12.454Z,101323.16
2023-05-09T10:53:04.077Z,101319.28
2023-05-09T10:56:02.102Z,101310.19
2023-05-09T10:58:37.537Z,101290.94
2023-05-09T11:01:05.057Z,101292.94
2023-05-09T11:03:58.939Z,101291.56
2023-05-09T11:06:41.958Z,101284.28
2023-05-09T11:09:28.652Z,101293.72
2023-05-09T11:12:01.771Z,101284.09
2023-05-09T11:14:38.201Z,101277.13
2023-05-09T11:17:06.970Z,101257.03
2023-05-09T11:19:35.190Z,101248.53
2023-05-09T11:22:15.389Z,101267.63
2023-05-09T11:24:49.726Z,101248.38
2023-05-09T11:27:26.520Z,101256.31
2023-05-09T11:29:58.893Z,101256.91
2023-05-09T11:32:32.448Z,101242.06
2023-05-09T11:35:15.352Z,101247.88
2023-05-09T11:37:47.105Z,101247.22
2023-05-09T11:40:15.944Z,101229.84
2023-05-09T11:42:48.373Z,101231.72
2023-05-09T11:45:16.278Z,101218.28
2023-05-09T11:47:43.459Z,101222.31
2023-05-09T11:50:12.229Z,101222.94
2023-05-09T11:52:39.479Z,101217.44
2023-05-09T11:57:36.351Z,101204.03
2023-05-09T12:00:04.875Z,101192.66
2023-05-09T12:02:32.298Z,101179.31
2023-05-09T12:05:13.239Z,101185.66
2023-05-09T12:07:41.288Z,101165.34
2023-05-09T12:10:16.481Z,101165.44
2023-05-09T12:12:44.765Z,101163.53
2023-05-09T12:15:13.647Z,101168.31
2023-05-09T12:17:41.599Z,101160.34
2023-05-09T12:20:09.052Z,101157.44
2023-05-09T12:22:37.519Z,101159.09
2023-05-09T12:25:09.623Z,101158.13
2023-05-09T12:27:37.881Z,101155.41
2023-05-09T12:30:08.630Z,101144.47
2023-05-09T12:32:36.705Z,101138.06
2023-05-09T12:35:03.515Z,101130.28
2023-05-09T12:37:32.558Z,101125.16
2023-05-09T12:40:04.913Z,101128.63
2023-05-09T12:42:32.385Z,101138.63
2023-05-09T12:44:59.505Z,101115.44
2023-05-09T12:47:31.069Z,101109.59
2023-05-09T12:50:05.610Z,101115.56
2023-05-09T12:52:46.961Z,101110.16
2023-05-09T12:55:26.016Z,101105.09
2023-05-09T12:58:00.608Z,101119.16
2023-05-09T13:00:27.318Z,101108.88
2023-05-09T13:02:54.422Z,101095.19
2023-05-09T13:05:22.809Z,101083.75
2023-05-09T13:07:52.641Z,101093.91
2023-05-09T13:10:21.784Z,101075.53
2023-05-09T13:12:49.313Z,101067.25
2023-05-09T13:15:17.508Z,101085.41
2023-05-09T13:17:45.406Z,101081.53
2023-05-09T13:20:12.326Z,101075.06
2023-05-09T13:22:39.027Z,101065.56
2023-05-09T13:25:06.663Z,101064.53
2023-05-09T13:27:34.169Z,101072.47
2023-05-09T13:30:00.876Z,101045.81
2023-05-09T13:32:27.982Z,101062.88
2023-05-09T13:34:54.870Z,101057.38
2023-05-09T13:37:21.921Z,101050.38
2023-05-09T13:39:48.875Z,101029.09
2023-05-09T13:42:18.453Z,101040.88
2023-05-09T13:44:45.762Z,101033.06
2023-05-09T13:47:12.520Z,101027.97
2023-05-09T13:49:43.290Z,101029.31
2023-05-09T13:52:11.571Z,101025.47
2023-05-09T13:54:38.475Z,101015.41
2023-05-09T13:57:05.184Z,101010.13
2023-05-09T13:59:32.327Z,101021.41
2023-05-09T14:02:00.330Z,101012.63
2023-05-09T14:04:28.465Z,101015.22
2023-05-09T14:06:55.856Z,101008.88
2023-05-09T14:09:23.029Z,100992.47
2023-05-09T14:11:53.067Z,100990.78
2023-05-09T14:14:21.172Z,100984.34
2023-05-09T14:16:48.503Z,101001.69
2023-05-09T14:19:15.506Z,101000.81
2023-05-09T14:21:43.103Z,100987.59
2023-05-09T14:24:10.612Z,100978.59
2023-05-09T14:26:37.320Z,100977.47
2023-05-09T14:29:05.024Z,100969.19
2023-05-09T14:31:32.321Z,100976.34
2023-05-09T14:34:00.329Z,100962.19
2023-05-09T14:36:27.606Z,100949.50
2023-05-09T14:38:54.554Z,100962.84
2023-05-09T14:41:22.250Z,100954.59
2023-05-09T14:43:49.100Z,100946.47
2023-05-09T14:46:16.117Z,100945.44
2023-05-09T14:48:53.093Z,100932.44
2023-05-09T14:51:19.890Z,100921.66
2023-05-09T14:53:47.252Z,100925.97
2023-05-09T14:56:14.143Z,100934.69
2023-05-09T14:58:41.021Z,100926.91
2023-05-09T15:01:07.825Z,100925.38
2023-05-09T15:03:34.893Z,100922.59
2023-05-09T15:06:01.796Z,100927.25
2023-05-09T15:08:28.521Z,100922.16
2023-05-09T15:10:55.254Z,100910.38
2023-05-09T15:13:22.108Z,100906.06
2023-05-09T15:15:48.917Z,100912.84
2023-05-09T15:18:17.091Z,100898.91
2023-05-09T15:20:44.061Z,100894.88
2023-05-09T15:23:11.968Z,100897.69
2023-05-09T15:25:42.220Z,100896.78
2023-05-09T15:28:08.927Z,100893.84
2023-05-09T15:30:38.304Z,100891.59
2023-05-09T15:33:05.358Z,100893.31
2023-05-09T15:35:32.202Z,100884.03
2023-05-09T15:37:59.284Z,100885.84
2023-05-09T15:40:25.975Z,100872.72
2023-05-09T15:42:52.865Z,100868.16
2023-05-09T15:45:19.606Z,100880.59
2023-05-09T15:47:46.330Z,100870.56
2023-05-09T15:50:13.213Z,100867.25
2023-05-09T15:52:40.304Z,100867.38
2023-05-09T15:55:08.518Z,100854.38
2023-05-09T15:57:35.287Z,100857.16
2023-05-09T16:00:02.060Z,100856.88
2023-05-09T16:02:30.197Z,100855.94
2023-05-09T16:04:57.039Z,100860.56
2023-05-09T16:07:25.014Z,100858.97
2023-05-09T16:09:51.766Z,100853.88
2023-05-09T16:12:18.451Z,100844.75
2023-05-09T16:14:45.490Z,100840.84
2023-05-09T16:17:12.827Z,100846.84
2023-05-09T16:19:39.819Z,100831.50
2023-05-09T16:22:06.688Z,100832.34
2023-05-09T16:24:33.377Z,100836.22
2023-05-09T16:27:00.045Z,100829.97
2023-05-09T16:29:28.468Z,100830.84
2023-05-09T16:31:55.471Z,100831.06
2023-05-09T16:34:22.709Z,100828.72
2023-05-09T16:36:49.869Z,100822.44
2023-05-09T16:39:16.628Z,100830.44
2023-05-09T16:41:43.456Z,100810.31
2023-05-09T16:44:10.218Z,100831.41
2023-05-09T16:46:37.330Z,100824.69
2023-05-09T16:49:04.338Z,100818.38
2023-05-09T16:51:31.492Z,100828.28
2023-05-09T16:53:58.511Z,100828.13
2023-05-09T16:56:25.449Z,100822.28
2023-05-09T16:58:52.180Z,100818.81
2023-05-09T17:01:19.007Z,100828.72
2023-05-09T17:03:45.673Z,100819.19
2023-05-09T17:06:12.354Z,100830.03
2023-05-09T17:08:38.973Z,100817.31
2023-05-09T17:11:05.763Z,100819.69
2023-05-09T17:13:32.430Z,100812.31
2023-05-09T17:15:59.205Z,100797.50
2023-05-09T17:18:36.667Z,100815.22
2023-05-09T17:21:05.216Z,100806.38
2023-05-09T17:23:31.913Z,100802.94
2023-05-09T17:25:58.853Z,100806.53
2023-05-09T17:28:25.483Z,100803.88
2023-05-09T17:30:52.517Z,100792.81
2023-05-09T17:33:19.373Z,100798.84
2023-05-09T17:35:49.340Z,100806.78
2023-05-09T17:38:15.992Z,100795.41
2023-05-09T17:40:43.227Z,100804.88
2023-05-09T17:43:10.263Z,100803.25
2023-05-09T17:45:37.252Z,100802.28
2023-05-09T17:48:04.082Z,100800.47
2023-05-09T17:50:31.471Z,100803.31
2023-05-09T17:52:58.667Z,100796.94
2023-05-09T17:55:25.345Z,100798.31
2023-05-09T17:57:52.267Z,100799.75
2023-05-09T18:00:19.722Z,100793.69
2023-05-09T18:02:48.128Z,100790.63
2023-05-09T18:05:16.643Z,100786.41
2023-05-09T18:07:43.291Z,100794.72
2023-05-09T18:10:10.242Z,100791.44
2023-05-09T18:12:37.422Z,100787.13
2023-05-09T18:15:04.941Z,100791.03
2023-05-09T18:17:31.701Z,100790.25
2023-05-09T18:20:00.140Z,100784.94
2023-05-09T18:22:26.777Z,100787.31
2023-05-09T18:24:53.621Z,100788.47
2023-05-09T18:27:20.262Z,100779.47
2023-05-09T18:29:47.578Z,100782.44
2023-05-09T18:32:14.510Z,100782.50
2023-05-09T18:34:41.868Z,100777.38
2023-05-09T18:37:09.644Z,100781.34
2023-05-09T18:39:36.640Z,100776.94
2023-05-09T18:42:03.487Z,100782.84
2023-05-09T18:44:30.240Z,100783.63
2023-05-09T18:46:58.005Z,100780.97
2023-05-09T18:49:27.539Z,100780.53
2023-05-09T18:51:55.150Z,100782.69
2023-05-09T18:54:22.142Z,100786.22
2023-05-09T18:56:49.898Z,100776.78
2023-05-09T18:59:17.348Z,100776.03
2023-05-09T19:01:44.198Z,100779.03
2023-05-09T19:04:11.114Z,100778.22
2023-05-09T19:06:38.139Z,100774.56
2023-05-09T19:09:05.323Z,100782.22
2023-05-09T19:11:31.958Z,100781.41
2023-05-09T19:13:58.705Z,100777.75
2023-05-09T19:16:26.690Z,100777.88
2023-05-09T19:18:57.817Z,100780.34
2023-05-09T19:21:25.494Z,100765.84
2023-05-09T19:23:52.337Z,100765.84
2023-05-09T19:26:19.570Z,100776.53
2023-05-09T19:28:46.976Z,100769.44
2023-05-09T19:31:14.966Z,100778.44
2023-05-09T19:33:45.287Z,100765.97
2023-05-09T19:36:12.109Z,100765.72
2023-05-09T19:38:39.159Z,100765.53
2023-05-09T19:41:05.902Z,100769.94
2023-05-09T19:43:32.626Z,100768.41
2023-05-09T19:46:00.021Z,100765.09
2023-05-09T19:48:26.801Z,100763.19
2023-05-09T19:50:58.406Z,100763.31
2023-05-09T19:53:25.136Z,100763.41
2023-05-09T19:55:52.070Z,100759.44
2023-05-09T19:58:18.783Z,100764.31
2023-05-09T20:00:46.296Z,100757.47
2023-05-09T20:03:13.244Z,100752.38
2023-05-09T20:05:42.519Z,100763.63
2023-05-09T20:08:10.123Z,100751.22
2023-05-09T20:10:37.564Z,100749.59
2023-05-09T20:13:04.582Z,100745.56
2023-05-09T20:15:31.446Z,100758.38
2023-05-09T20:17:58.596Z,100751.38
2023-05-09T20:20:25.479Z,100749.41
2023-05-09T20:22:52.595Z,100746.88
2023-05-09T20:25:19.729Z,100746.84
2023-05-09T20:27:46.587Z,100746.22
2023-05-09T20:30:13.584Z,100739.47
2023-05-09T20:32:40.515Z,100738.72
2023-05-09T20:35:07.426Z,100729.25
2023-05-09T20:37:34.213Z,100736.56
2023-05-09T20:40:01.757Z,100723.19
2023-05-09T20:42:28.421Z,100730.81
2023-05-09T20:44:55.245Z,100723.81
2023-05-09T20:47:23.575Z,100727.50
2023-05-09T20:49:55.850Z,100724.88
2023-05-09T20:52:25.038Z,100716.00
2023-05-09T20:54:52.067Z,100724.16
2023-05-09T20:57:19.815Z,100715.22
2023-05-09T20:59:49.361Z,100720.00
2023-05-09T21:02:16.203Z,100717.44
2023-05-09T21:04:42.999Z,100720.00
2023-05-09T21:07:10.021Z,100710.41
2023-05-09T21:09:38.945Z,100716.94
2023-05-09T21:12:05.983Z,100700.22
2023-05-09T21:14:32.737Z,100699.44
2023-05-09T21:16:59.465Z,100705.63
2023-05-09T21:19:26.569Z,100701.41
2023-05-09T21:21:54.821Z,100698.00
2023-05-09T21:24:21.508Z,100692.03
2023-05-09T21:26:49.150Z,100697.47
2023-05-09T21:29:17.585Z,100687.72
2023-05-09T21:31:44.413Z,100691.13
2023-05-09T21:34:11.259Z,100688.75
2023-05-09T21:36:38.546Z,100679.00
2023-05-09T21:39:09.167Z,100681.75
2023-05-09T21:41:39.784Z,100677.81
2023-05-09T21:44:11.267Z,100678.31
2023-05-09T21:46:41.513Z,100663.91
2023-05-09T21:49:10.692Z,100674.91
2023-05-09T21:51:37.593Z,100675.06
2023-05-09T21:54:05.441Z,100661.22
2023-05-09T21:56:32.115Z,100661.28
2023-05-09T21:58:58.798Z,100658.47
2023-05-09T22:01:25.559Z,100664.63
2023-05-09T22:03:52.432Z,100661.97
2023-05-09T22:06:21.186Z,100657.69
2023-05-09T22:08:48.242Z,100662.03
2023-05-09T22:11:15.287Z,100656.84
2023-05-09T22:13:42.505Z,100664.19
2023-05-09T22:16:09.238Z,100654.56
2023-05-09T22:18:36.076Z,100659.03
2023-05-09T22:21:02.910Z,100659.94
2023-05-09T22:23:29.505Z,100646.59
2023-05-09T22:25:56.190Z,100650.22
2023-05-09T22:28:22.958Z,100655.88
2023-05-09T22:30:49.589Z,100658.69
2023-05-09T22:33:16.241Z,100656.81
2023-05-09T22:35:42.847Z,100654.22
2023-05-09T22:38:09.492Z,100649.72
2023-05-09T22:40:36.189Z,100656.75
2023-05-09T22:43:02.876Z,100654.41
2023-05-09T22:45:29.569Z,100648.97
2023-05-09T22:47:56.296Z,100642.84
2023-05-09T22:50:23.173Z,100647.53
2023-05-09T22:52:49.945Z,100643.31
2023-05-09T22:55:16.614Z,100647.69
2023-05-09T22:57:43.253Z,100637.75
2023-05-09T23:00:10.434Z,100643.47
2023-05-09T23:02:37.338Z,100638.84
2023-05-09T23:05:04.441Z,100627.31
2023-05-09T23:07:31.087Z,100638.09
2023-05-09T23:09:57.810Z,100630.31
2023-05-09T23:12:26.558Z,100630.47
2023-05-09T23:14:53.353Z,100632.19
2023-05-09T23:17:20.063Z,100625.28
2023-05-09T23:19:47.065Z,100633.25
2023-05-09T23:22:18.826Z,100629.94
2023-05-09T23:24:45.733Z,100629.31
2023-05-09T23:27:12.477Z,100633.50
2023-05-09T23:29:40.448Z,100628.84
2023-05-09T23:32:07.114Z,100630.06
2023-05-09T23:34:36.859Z,100632.69
2023-05-09T23:37:04.456Z,100626.69
2023-05-09T23:39:31.574Z,100630.31
2023-05-09T23:41:58.726Z,100624.94
2023-05-09T23:44:25.726Z,100620.72
2023-05-09T23:46:52.587Z,100620.13
2023-05-09T23:49:19.411Z,100615.59
2023-05-09T23:51:46.103Z,100618.56
2023-05-09T23:54:13.148Z,100618.56
2023-05-09T23:56:40.049Z,100618.75
2023-05-09T23:59:06.839Z,100620.53
